createdAt,value
2023-08-18T00:00:09.256Z,6.90
2023-08-18T00:02:36.509Z,6.40
2023-08-18T00:05:03.432Z,6.53
2023-08-18T00:07:31.385Z,6.18
2023-08-18T00:09:58.452Z,6.07
2023-08-18T00:12:25.238Z,6.15
2023-08-18T00:14:53.072Z,5.75
2023-08-18T00:17:19.940Z,5.65
2023-08-18T00:19:47.896Z,5.95
2023-08-18T00:22:14.754Z,6.60
2023-08-18T00:24:41.573Z,5.95
2023-08-18T00:27:08.378Z,6.45
2023-08-18T00:29:35.163Z,5.97
2023-08-18T00:32:02.015Z,6.45
2023-08-18T00:34:29.413Z,6.30
2023-08-18T00:36:57.548Z,6.15
2023-08-18T00:39:24.453Z,6.70
2023-08-18T00:41:52.183Z,6.20
2023-08-18T00:44:18.936Z,6.00
2023-08-18T00:46:46.201Z,5.70
2023-08-18T00:49:14.296Z,5.82
2023-08-18T00:51:42.340Z,6.50
2023-08-18T00:54:10.153Z,6.43
2023-08-18T00:56:37.351Z,6.25
2023-08-18T00:59:06.375Z,6.63
2023-08-18T01:01:34.413Z,6.45
2023-08-18T01:04:02.189Z,6.40
2023-08-18T01:06:29.513Z,7.30
2023-08-18T01:08:56.616Z,7.40
2023-08-18T01:11:49.990Z,6.72
2023-08-18T01:14:22.483Z,6.93
2023-08-18T01:16:57.305Z,7.20
2023-08-18T01:19:26.012Z,6.18
2023-08-18T01:21:56.666Z,6.43
2023-08-18T01:24:25.450Z,7.15
2023-08-18T01:26:53.683Z,6.90
2023-08-18T01:29:24.081Z,6.50
2023-08-18T01:31:56.880Z,6.45
2023-08-18T01:34:26.518Z,6.40
2023-08-18T01:36:58.786Z,7.10
2023-08-18T01:39:27.370Z,6.90
2023-08-18T01:41:54.177Z,6.90
2023-08-18T01:44:21.593Z,6.80
2023-08-18T01:46:48.507Z,7.63
2023-08-18T01:49:15.615Z,7.50
2023-08-18T01:51:42.418Z,7.40
2023-08-18T01:54:09.368Z,7.13
2023-08-18T01:56:36.168Z,7.40
2023-08-18T01:59:05.053Z,6.97
2023-08-18T02:01:32.248Z,8.02
2023-08-18T02:03:59.180Z,7.50
2023-08-18T02:06:26.017Z,7.05
2023-08-18T02:08:52.802Z,7.10
2023-08-18T02:11:19.581Z,7.50
2023-08-18T02:13:46.375Z,7.00
2023-08-18T02:16:13.290Z,7.72
2023-08-18T02:18:40.492Z,8.85
2023-08-18T02:21:07.318Z,7.57
2023-08-18T02:23:34.406Z,7.32
2023-08-18T02:26:05.968Z,6.93
2023-08-18T02:28:34.171Z,7.05
2023-08-18T02:31:06.259Z,6.97
2023-08-18T02:33:35.690Z,7.53
2023-08-18T02:36:03.000Z,7.03
2023-08-18T02:38:30.435Z,6.90
2023-08-18T02:40:57.755Z,7.68
2023-08-18T02:43:25.590Z,7.07
2023-08-18T02:46:04.002Z,6.22
2023-08-18T02:48:31.262Z,6.90
2023-08-18T02:51:05.569Z,6.75
2023-08-18T02:53:32.915Z,7.05
2023-08-18T02:55:59.761Z,7.18
2023-08-18T02:58:30.856Z,7.10
2023-08-18T03:01:03.071Z,8.50
2023-08-18T03:03:30.117Z,8.10
2023-08-18T03:06:02.715Z,7.93
2023-08-18T03:08:29.801Z,9.25
2023-08-18T03:10:57.838Z,8.82
2023-08-18T03:13:25.076Z,8.77
2023-08-18T03:15:52.181Z,9.93
2023-08-18T03:18:19.315Z,9.55
2023-08-18T03:20:48.411Z,9.68
2023-08-18T03:23:16.334Z,10.43
2023-08-18T03:25:43.606Z,9.55
2023-08-18T03:28:11.782Z,10.55
2023-08-18T03:30:39.154Z,9.32
2023-08-18T03:33:06.479Z,9.13
2023-08-18T03:35:36.301Z,9.20
2023-08-18T03:38:04.503Z,8.60
2023-08-18T03:40:31.331Z,8.00
2023-08-18T03:42:58.143Z,9.38
2023-08-18T03:45:24.987Z,8.63
2023-08-18T03:47:52.672Z,9.35
2023-08-18T03:50:22.525Z,9.57
2023-08-18T03:52:49.471Z,9.80
2023-08-18T03:55:16.617Z,9.57
2023-08-18T03:57:43.468Z,11.05
2023-08-18T04:00:11.232Z,12.85
2023-08-18T04:02:38.043Z,11.60
2023-08-18T04:05:05.261Z,12.35
2023-08-18T04:07:32.172Z,12.70
2023-08-18T04:09:59.046Z,11.27
2023-08-18T04:12:26.472Z,9.30
2023-08-18T04:14:53.769Z,8.48
2023-08-18T04:17:20.521Z,10.10
2023-08-18T04:19:47.275Z,9.18
2023-08-18T04:22:14.121Z,8.10
2023-08-18T04:24:41.232Z,8.55
2023-08-18T04:27:08.008Z,9.80
2023-08-18T04:29:34.753Z,10.05
2023-08-18T04:32:01.581Z,10.75
2023-08-18T04:34:28.737Z,8.95
2023-08-18T04:36:55.555Z,9.40
2023-08-18T04:39:22.557Z,9.70
2023-08-18T04:41:49.435Z,8.80
2023-08-18T04:44:16.226Z,9.27
2023-08-18T04:46:43.047Z,9.15
2023-08-18T04:49:10.046Z,9.23
2023-08-18T04:51:37.121Z,9.80
2023-08-18T04:54:04.948Z,9.05
2023-08-18T04:56:32.044Z,9.07
2023-08-18T04:58:58.901Z,9.82
2023-08-18T05:01:25.735Z,10.05
2023-08-18T05:03:52.584Z,10.35
2023-08-18T05:06:20.845Z,9.70
2023-08-18T05:08:47.642Z,9.75
2023-08-18T05:11:14.423Z,11.45
2023-08-18T05:13:42.825Z,11.80
2023-08-18T05:16:09.698Z,11.45
2023-08-18T05:18:36.851Z,9.82
2023-08-18T05:21:04.221Z,8.80
2023-08-18T05:23:31.585Z,7.82
2023-08-18T05:25:58.639Z,8.10
2023-08-18T05:28:29.325Z,8.77
2023-08-18T05:30:56.438Z,7.75
2023-08-18T05:33:23.508Z,7.25
2023-08-18T05:35:50.347Z,6.82
2023-08-18T05:38:17.817Z,6.70
2023-08-18T05:40:45.642Z,6.05
2023-08-18T05:43:13.691Z,6.35
2023-08-18T05:45:41.009Z,6.40
2023-08-18T05:48:08.148Z,7.07
2023-08-18T05:50:35.462Z,7.68
2023-08-18T05:53:03.615Z,7.68
2023-08-18T05:55:30.733Z,6.85
2023-08-18T05:58:03.466Z,7.70
2023-08-18T06:00:31.445Z,8.35
2023-08-18T06:02:58.694Z,7.35
2023-08-18T06:05:28.611Z,7.57
2023-08-18T06:07:55.972Z,7.88
2023-08-18T06:10:23.847Z,8.65
2023-08-18T06:12:50.655Z,7.63
2023-08-18T06:15:18.809Z,7.20
2023-08-18T06:17:45.773Z,7.00
2023-08-18T06:20:13.414Z,7.28
2023-08-18T06:22:40.574Z,6.80
2023-08-18T06:25:08.751Z,7.35
2023-08-18T06:27:35.727Z,7.57
2023-08-18T06:30:03.658Z,7.20
2023-08-18T06:32:33.330Z,7.60
2023-08-18T06:35:00.262Z,7.72
2023-08-18T06:37:27.338Z,7.68
2023-08-18T06:39:54.653Z,7.50
2023-08-18T06:42:21.598Z,6.85
2023-08-18T06:44:48.532Z,6.95
2023-08-18T06:47:15.441Z,7.20
2023-08-18T06:49:42.293Z,6.40
2023-08-18T06:52:09.079Z,6.72
2023-08-18T06:54:35.870Z,6.85
2023-08-18T06:57:02.683Z,8.00
2023-08-18T06:59:29.818Z,7.18
2023-08-18T07:01:56.792Z,7.70
2023-08-18T07:04:23.713Z,7.30
2023-08-18T07:06:50.604Z,7.40
2023-08-18T07:09:17.414Z,6.28
2023-08-18T07:11:44.204Z,6.35
2023-08-18T07:14:11.008Z,6.68
2023-08-18T07:16:38.148Z,6.65
2023-08-18T07:19:04.991Z,6.85
2023-08-18T07:21:31.796Z,6.85
2023-08-18T07:23:58.782Z,5.70
2023-08-18T07:26:25.581Z,5.78
2023-08-18T07:28:52.327Z,5.10
2023-08-18T07:31:19.179Z,6.10
2023-08-18T07:33:46.076Z,5.82
2023-08-18T07:36:12.964Z,5.70
2023-08-18T07:38:39.816Z,5.60
2023-08-18T07:41:06.899Z,5.03
2023-08-18T07:43:33.780Z,5.93
2023-08-18T07:46:00.860Z,5.95
2023-08-18T07:48:27.822Z,5.60
2023-08-18T07:50:54.582Z,5.13
2023-08-18T07:53:21.349Z,5.75
2023-08-18T07:55:48.184Z,5.10
2023-08-18T07:58:16.731Z,4.97
2023-08-18T08:00:43.776Z,5.80
2023-08-18T08:03:10.937Z,5.65
2023-08-18T08:05:39.275Z,5.18
2023-08-18T08:08:07.370Z,5.00
2023-08-18T08:10:34.363Z,4.88
2023-08-18T08:13:01.282Z,5.53
2023-08-18T08:15:28.364Z,4.75
2023-08-18T08:17:56.431Z,5.03
2023-08-18T08:20:30.284Z,4.03
2023-08-18T08:22:57.657Z,4.18
2023-08-18T08:25:24.593Z,4.80
2023-08-18T08:27:58.782Z,4.50
2023-08-18T08:33:01.232Z,4.80
2023-08-18T08:35:29.152Z,5.05
2023-08-18T08:37:57.407Z,4.68
2023-08-18T08:40:24.461Z,5.50
2023-08-18T08:42:54.912Z,4.95
2023-08-18T08:45:22.246Z,4.53
2023-08-18T08:47:49.617Z,4.53
2023-08-18T08:50:18.223Z,5.05
2023-08-18T08:52:49.704Z,4.85
2023-08-18T08:55:18.415Z,4.22
2023-08-18T08:57:45.524Z,5.15
2023-08-18T09:00:12.868Z,5.03
2023-08-18T09:02:40.657Z,5.18
2023-08-18T09:05:07.961Z,4.43
2023-08-18T09:07:34.954Z,5.20
2023-08-18T09:10:01.783Z,5.45
2023-08-18T09:12:34.186Z,5.70
2023-08-18T09:15:02.179Z,5.85
2023-08-18T09:17:33.328Z,5.15
2023-08-18T09:20:01.227Z,4.88
2023-08-18T09:22:31.016Z,4.55
2023-08-18T09:24:58.435Z,4.80
2023-08-18T09:27:25.329Z,4.30
2023-08-18T09:29:53.622Z,4.53
2023-08-18T09:32:23.643Z,4.63
2023-08-18T09:34:57.087Z,4.47
2023-08-18T09:37:31.439Z,4.25
2023-08-18T09:39:58.760Z,4.68
2023-08-18T09:42:25.764Z,4.95
2023-08-18T09:44:53.795Z,4.65
2023-08-18T09:47:25.213Z,4.40
2023-08-18T09:49:52.760Z,4.15
2023-08-18T09:52:22.571Z,4.00
2023-08-18T09:55:00.450Z,4.55
2023-08-18T09:57:33.263Z,4.07
2023-08-18T10:00:01.730Z,4.40
2023-08-18T10:02:36.072Z,3.83
2023-08-18T10:05:04.292Z,4.15
2023-08-18T10:07:32.000Z,4.80
2023-08-18T10:09:58.976Z,4.38
2023-08-18T10:12:25.728Z,4.30
2023-08-18T10:14:54.513Z,4.18
2023-08-18T10:17:25.194Z,3.83
2023-08-18T10:19:56.161Z,4.25
2023-08-18T10:22:27.571Z,4.07
2023-08-18T10:24:55.841Z,4.20
2023-08-18T10:27:28.802Z,4.15
2023-08-18T10:30:08.921Z,3.72
2023-08-18T10:32:37.100Z,3.38
2023-08-18T10:35:27.128Z,3.35
2023-08-18T10:38:03.053Z,3.47
2023-08-18T10:40:37.548Z,3.35
2023-08-18T10:43:14.006Z,3.53
2023-08-18T10:45:42.026Z,3.60
2023-08-18T10:48:13.116Z,3.35
2023-08-18T10:50:46.247Z,3.40
2023-08-18T10:53:14.184Z,3.08
2023-08-18T10:55:44.100Z,3.20
2023-08-18T10:58:11.513Z,3.47
2023-08-18T11:00:38.687Z,3.22
2023-08-18T11:03:07.523Z,3.28
2023-08-18T11:05:35.166Z,3.33
2023-08-18T11:08:03.114Z,3.08
2023-08-18T11:10:30.767Z,2.85
2023-08-18T11:13:00.956Z,2.60
2023-08-18T11:15:28.488Z,2.88
2023-08-18T11:17:55.359Z,2.75
2023-08-18T11:20:22.880Z,3.50
2023-08-18T11:22:52.876Z,3.15
2023-08-18T11:25:23.522Z,3.15
2023-08-18T11:27:52.371Z,2.90
2023-08-18T11:30:20.367Z,2.97
2023-08-18T11:32:47.376Z,2.70
2023-08-18T11:35:17.181Z,2.85
2023-08-18T11:37:46.017Z,2.75
2023-08-18T11:40:14.373Z,2.90
2023-08-18T11:42:45.858Z,2.60
2023-08-18T11:45:18.134Z,2.47
2023-08-18T11:47:47.717Z,2.90
2023-08-18T11:50:20.620Z,2.63
2023-08-18T11:52:52.468Z,2.70
2023-08-18T11:55:42.775Z,3.10
2023-08-18T11:58:12.340Z,2.50
2023-08-18T12:00:40.981Z,2.38
2023-08-18T12:03:28.409Z,2.28
2023-08-18T12:05:57.440Z,2.50
2023-08-18T12:08:24.958Z,2.38
2023-08-18T12:10:54.819Z,2.35
2023-08-18T12:13:22.744Z,2.33
2023-08-18T12:15:50.385Z,2.50
2023-08-18T12:18:17.370Z,2.20
2023-08-18T12:20:44.195Z,2.13
2023-08-18T12:23:11.132Z,2.13
2023-08-18T12:25:37.962Z,2.40
2023-08-18T12:28:05.468Z,2.20
2023-08-18T12:30:32.406Z,2.38
2023-08-18T12:32:59.224Z,2.13
2023-08-18T12:35:26.368Z,2.00
2023-08-18T12:37:53.752Z,2.13
2023-08-18T12:40:20.628Z,2.13
2023-08-18T12:42:47.418Z,2.10
2023-08-18T12:45:14.235Z,1.88
2023-08-18T12:47:41.257Z,1.70
2023-08-18T12:50:09.047Z,1.92
2023-08-18T12:52:36.563Z,1.58
2023-08-18T12:55:07.158Z,1.70
2023-08-18T12:57:34.024Z,1.70
2023-08-18T13:00:00.846Z,1.70
2023-08-18T13:02:28.028Z,1.30
2023-08-18T13:04:54.981Z,1.50
2023-08-18T13:07:22.532Z,1.70
2023-08-18T13:09:49.323Z,1.60
2023-08-18T13:12:19.262Z,1.50
2023-08-18T13:14:46.860Z,1.80
2023-08-18T13:17:14.305Z,1.80
2023-08-18T13:19:47.663Z,1.67
2023-08-18T13:22:15.980Z,1.50
2023-08-18T13:24:42.937Z,1.60
2023-08-18T13:27:10.537Z,1.73
2023-08-18T13:29:37.713Z,1.80
2023-08-18T13:32:04.671Z,1.90
2023-08-18T13:34:31.443Z,1.90
2023-08-18T13:36:58.264Z,1.90
2023-08-18T13:39:25.537Z,1.77
2023-08-18T13:41:52.336Z,1.75
2023-08-18T13:44:19.139Z,1.75
2023-08-18T13:46:45.995Z,1.90
2023-08-18T13:49:12.902Z,1.80
2023-08-18T13:51:40.948Z,2.03
2023-08-18T13:54:12.672Z,1.75
2023-08-18T13:56:41.049Z,1.85
2023-08-18T13:59:07.856Z,1.80
2023-08-18T14:01:35.676Z,1.77
2023-08-18T14:04:03.238Z,1.83
2023-08-18T14:06:30.208Z,1.80
2023-08-18T14:08:57.050Z,1.60
2023-08-18T14:11:23.953Z,2.58
2023-08-18T14:13:51.458Z,2.05
2023-08-18T14:16:18.464Z,1.63
2023-08-18T14:18:45.387Z,1.92
2023-08-18T14:21:12.194Z,2.00
2023-08-18T14:23:38.945Z,1.70
2023-08-18T14:26:05.831Z,1.55
2023-08-18T14:28:32.653Z,2.40
2023-08-18T14:30:59.432Z,1.70
2023-08-18T14:33:43.554Z,1.70
2023-08-18T14:36:14.233Z,1.67
2023-08-18T14:38:41.034Z,1.80
2023-08-18T14:41:07.901Z,1.70
2023-08-18T14:43:36.414Z,2.10
2023-08-18T14:46:05.610Z,1.73
2023-08-18T14:48:32.608Z,1.70
2023-08-18T14:50:59.407Z,1.88
2023-08-18T14:53:26.189Z,2.70
2023-08-18T14:55:53.638Z,2.00
2023-08-18T14:58:26.767Z,1.98
2023-08-18T15:00:53.735Z,2.40
2023-08-18T15:03:20.815Z,1.75
2023-08-18T15:05:47.703Z,1.90
2023-08-18T15:08:14.806Z,1.75
2023-08-18T15:10:42.395Z,1.70
2023-08-18T15:13:10.004Z,1.67
2023-08-18T15:15:36.926Z,1.70
2023-08-18T15:18:04.760Z,1.80
2023-08-18T15:20:32.261Z,1.80
2023-08-18T15:22:59.709Z,1.80
2023-08-18T15:25:26.852Z,1.73
2023-08-18T15:27:55.148Z,1.60
2023-08-18T15:30:22.683Z,1.60
2023-08-18T15:32:50.365Z,1.83
2023-08-18T15:35:17.485Z,1.63
2023-08-18T15:37:44.318Z,1.60
2023-08-18T15:40:11.410Z,1.48
2023-08-18T15:42:38.601Z,1.33
2023-08-18T15:45:06.342Z,1.60
2023-08-18T15:47:33.686Z,1.60
2023-08-18T15:50:00.944Z,1.50
2023-08-18T15:52:27.828Z,1.40
2023-08-18T15:54:54.766Z,1.75
2023-08-18T15:57:21.576Z,1.50
2023-08-18T15:59:48.634Z,2.10
2023-08-18T16:02:15.559Z,1.48
2023-08-18T16:04:42.416Z,1.70
2023-08-18T16:07:09.209Z,1.40
2023-08-18T16:09:36.089Z,1.60
2023-08-18T16:12:02.947Z,1.63
2023-08-18T16:17:01.228Z,1.52
2023-08-18T16:19:29.390Z,1.50
2023-08-18T16:21:56.268Z,1.63
2023-08-18T16:24:23.370Z,1.48
2023-08-18T16:26:52.363Z,1.60
2023-08-18T16:29:19.190Z,1.70
2023-08-18T16:31:46.011Z,1.65
2023-08-18T16:34:12.796Z,1.33
2023-08-18T16:36:39.595Z,1.30
2023-08-18T16:39:06.456Z,1.70
2023-08-18T16:41:33.260Z,1.70
2023-08-18T16:44:00.096Z,1.45
2023-08-18T16:46:27.076Z,1.95
2023-08-18T16:48:55.132Z,1.92
2023-08-18T16:51:22.006Z,1.73
2023-08-18T16:53:48.931Z,1.70
2023-08-18T16:56:15.736Z,2.08
2023-08-18T16:58:42.514Z,1.80
2023-08-18T17:01:09.346Z,2.05
2023-08-18T17:03:36.161Z,1.80
2023-08-18T17:06:02.924Z,1.83
2023-08-18T17:08:29.773Z,1.95
2023-08-18T17:10:56.914Z,2.10
2023-08-18T17:13:23.873Z,2.03
2023-08-18T17:15:52.796Z,2.10
2023-08-18T17:18:19.736Z,2.17
2023-08-18T17:20:46.613Z,2.28
2023-08-18T17:23:13.385Z,2.72
2023-08-18T17:25:40.218Z,2.03
2023-08-18T17:28:07.133Z,1.70
2023-08-18T17:30:33.998Z,2.00
2023-08-18T17:33:01.515Z,2.03
2023-08-18T17:35:28.629Z,2.50
2023-08-18T17:37:57.409Z,2.38
2023-08-18T17:40:24.272Z,2.83
2023-08-18T17:42:51.168Z,2.35
2023-08-18T17:45:18.028Z,2.28
2023-08-18T17:47:44.821Z,2.13
2023-08-18T17:50:11.693Z,2.60
2023-08-18T17:52:38.495Z,2.30
2023-08-18T17:55:05.651Z,2.60
2023-08-18T17:57:32.622Z,2.95
2023-08-18T17:59:59.716Z,2.78
2023-08-18T18:02:26.600Z,2.75
2023-08-18T18:04:54.706Z,2.35
2023-08-18T18:07:21.514Z,2.45
2023-08-18T18:09:48.307Z,3.15
2023-08-18T18:12:16.813Z,3.30
2023-08-18T18:14:48.316Z,3.40
2023-08-18T18:17:18.504Z,2.83
2023-08-18T18:19:45.346Z,3.03
2023-08-18T18:22:14.290Z,3.20
2023-08-18T18:24:42.609Z,2.72
2023-08-18T18:27:12.166Z,2.80
2023-08-18T18:29:39.317Z,3.40
2023-08-18T18:32:06.969Z,3.25
2023-08-18T18:34:33.842Z,3.65
2023-08-18T18:37:00.655Z,3.10
2023-08-18T18:39:27.444Z,2.97
2023-08-18T18:41:54.598Z,3.08
2023-08-18T18:44:21.887Z,3.17
2023-08-18T18:46:48.686Z,2.78
2023-08-18T18:49:16.590Z,3.13
2023-08-18T18:51:43.423Z,3.10
2023-08-18T18:54:10.313Z,3.58
2023-08-18T18:56:37.096Z,3.40
2023-08-18T18:59:04.016Z,3.50
2023-08-18T19:01:30.866Z,3.80
2023-08-18T19:03:57.658Z,3.42
2023-08-18T19:06:24.704Z,3.45
2023-08-18T19:08:51.501Z,3.53
2023-08-18T19:11:18.356Z,3.60
2023-08-18T19:13:45.592Z,3.20
2023-08-18T19:16:13.292Z,3.40
2023-08-18T19:18:40.293Z,3.70
2023-08-18T19:21:07.065Z,3.50
2023-08-18T19:23:37.777Z,3.92
2023-08-18T19:26:05.302Z,3.28
2023-08-18T19:28:35.537Z,3.33
2023-08-18T19:31:04.641Z,4.00
2023-08-18T19:33:31.718Z,3.83
2023-08-18T19:35:58.574Z,3.72
2023-08-18T19:38:26.568Z,3.42
2023-08-18T19:40:54.664Z,3.70
2023-08-18T19:43:21.829Z,4.03
2023-08-18T19:45:53.968Z,3.38
2023-08-18T19:48:20.789Z,3.78
2023-08-18T19:50:47.620Z,4.07
2023-08-18T19:53:14.459Z,3.92
2023-08-18T19:55:41.234Z,4.00
2023-08-18T19:58:08.012Z,4.20
2023-08-18T20:00:34.796Z,4.05
2023-08-18T20:03:01.667Z,4.00
2023-08-18T20:05:28.652Z,3.75
2023-08-18T20:07:55.478Z,4.55
2023-08-18T20:10:22.453Z,3.72
2023-08-18T20:12:49.357Z,4.30
2023-08-18T20:15:16.706Z,4.03
2023-08-18T20:17:43.669Z,4.20
2023-08-18T20:20:10.750Z,3.90
2023-08-18T20:22:40.527Z,4.28
2023-08-18T20:25:09.396Z,4.20
2023-08-18T20:27:36.776Z,4.43
2023-08-18T20:30:05.488Z,3.97
2023-08-18T20:32:36.439Z,4.15
2023-08-18T20:35:04.022Z,4.07
2023-08-18T20:37:31.397Z,4.40
2023-08-18T20:39:58.244Z,4.55
2023-08-18T20:42:25.607Z,4.60
2023-08-18T20:44:52.447Z,4.03
2023-08-18T20:47:19.236Z,4.90
2023-08-18T20:49:46.086Z,4.45
2023-08-18T20:52:12.869Z,4.63
2023-08-18T20:54:39.648Z,4.30
2023-08-18T20:57:06.439Z,4.75
2023-08-18T20:59:33.295Z,4.80
2023-08-18T21:02:00.174Z,4.35
2023-08-18T21:04:27.543Z,3.97
2023-08-18T21:06:54.477Z,4.30
2023-08-18T21:09:23.786Z,4.22
2023-08-18T21:11:51.239Z,4.47
2023-08-18T21:14:18.099Z,5.03
2023-08-18T21:16:45.050Z,4.28
2023-08-18T21:19:11.824Z,4.50
2023-08-18T21:21:39.249Z,5.15
2023-08-18T21:24:07.527Z,7.38
2023-08-18T21:26:34.614Z,6.32
2023-08-18T21:29:01.575Z,5.53
2023-08-18T21:31:28.774Z,6.03
2023-08-18T21:33:55.590Z,5.57
2023-08-18T21:36:25.306Z,5.80
2023-08-18T21:38:53.114Z,5.50
2023-08-18T21:41:20.261Z,5.25
2023-08-18T21:43:47.220Z,5.10
2023-08-18T21:46:14.276Z,5.03
2023-08-18T21:48:42.068Z,4.90
2023-08-18T21:51:09.964Z,5.07
2023-08-18T21:53:36.793Z,5.32
2023-08-18T21:56:04.330Z,5.20
2023-08-18T21:58:31.972Z,4.97
2023-08-18T22:01:00.180Z,5.30
2023-08-18T22:03:27.464Z,5.65
2023-08-18T22:05:54.854Z,4.90
2023-08-18T22:08:21.639Z,4.53
2023-08-18T22:10:48.465Z,5.07
2023-08-18T22:13:15.328Z,4.80
2023-08-18T22:15:42.219Z,4.32
2023-08-18T22:18:10.053Z,5.00
2023-08-18T22:20:37.034Z,4.90
2023-08-18T22:23:04.984Z,5.03
2023-08-18T22:25:32.202Z,5.05
2023-08-18T22:27:59.172Z,5.13
2023-08-18T22:30:26.332Z,5.18
2023-08-18T22:32:53.224Z,5.65
2023-08-18T22:35:20.083Z,5.70
2023-08-18T22:37:46.888Z,5.32
2023-08-18T22:40:13.832Z,5.90
2023-08-18T22:42:40.749Z,5.90
2023-08-18T22:45:09.093Z,5.80
2023-08-18T22:47:40.084Z,5.70
2023-08-18T22:50:07.792Z,4.60
2023-08-18T22:52:35.720Z,4.97
2023-08-18T22:55:04.930Z,4.75
2023-08-18T22:57:32.471Z,5.15
2023-08-18T22:59:59.880Z,5.65
2023-08-18T23:02:27.333Z,5.75
2023-08-18T23:04:54.302Z,6.60
2023-08-18T23:07:21.176Z,5.78
2023-08-18T23:09:48.070Z,6.50
2023-08-18T23:12:15.664Z,6.07
2023-08-18T23:14:42.987Z,5.60
2023-08-18T23:17:09.876Z,6.10
2023-08-18T23:19:36.652Z,5.55
2023-08-18T23:22:03.557Z,5.72
2023-08-18T23:24:30.467Z,5.85
2023-08-18T23:26:57.355Z,5.50
2023-08-18T23:29:24.242Z,5.63
2023-08-18T23:31:51.025Z,5.05
2023-08-18T23:34:17.852Z,4.95
2023-08-18T23:36:44.647Z,5.20
2023-08-18T23:39:12.218Z,5.35
2023-08-18T23:41:39.126Z,5.45
2023-08-18T23:44:06.288Z,5.57
2023-08-18T23:46:33.849Z,5.45
2023-08-18T23:49:00.776Z,5.20
2023-08-18T23:51:27.601Z,5.25
2023-08-18T23:53:55.381Z,5.20
2023-08-18T23:56:22.448Z,5.38
2023-08-18T23:58:49.363Z,4.68
